createdAt,value
2023-03-06T00:08:30.599Z,95.70
2023-03-06T00:11:34.552Z,95.70
2023-03-06T00:14:07.442Z,95.70
2023-03-06T00:17:05.362Z,95.70
2023-03-06T00:23:28.614Z,95.70
2023-03-06T00:27:00.850Z,95.70
2023-03-06T00:33:14.596Z,95.70
2023-03-06T00:36:28.124Z,95.70
2023-03-06T00:39:35.596Z,95.70
2023-03-06T00:44:53.269Z,95.70
2023-03-06T00:47:20.070Z,95.70
2023-03-06T00:49:55.998Z,95.70
2023-03-06T00:52:44.417Z,95.70
2023-03-06T00:59:01.806Z,95.70
2023-03-06T01:05:28.852Z,95.70
2023-03-06T01:08:39.430Z,95.70
2023-03-06T01:11:49.623Z,95.70
2023-03-06T01:18:54.038Z,95.70
2023-03-06T01:32:51.478Z,95.70
2023-03-06T01:39:33.764Z,95.70
2023-03-06T01:42:46.377Z,95.70
2023-03-06T01:56:57.721Z,95.70
2023-03-06T02:25:10.158Z,95.70
2023-03-06T02:28:34.287Z,95.70
2023-03-06T02:31:01.085Z,95.70
2023-03-06T02:41:27.387Z,95.70
2023-03-06T02:48:37.940Z,95.70
2023-03-06T02:51:16.446Z,95.70
2023-03-06T03:08:39.313Z,95.70
2023-03-06T03:11:12.449Z,95.70
2023-03-06T03:14:32.176Z,95.70
2023-03-06T03:20:58.869Z,95.70
2023-03-06T03:27:47.727Z,95.70
2023-03-06T03:34:39.475Z,95.70
2023-03-06T03:37:49.885Z,95.70
2023-03-06T03:40:41.573Z,95.70
2023-03-06T03:43:08.383Z,95.70
2023-03-06T03:45:35.220Z,95.70
2023-03-06T03:48:02.059Z,95.70
2023-03-06T03:50:28.893Z,95.70
2023-03-06T03:52:55.709Z,95.70
2023-03-06T03:55:22.561Z,95.70
2023-03-06T03:57:49.425Z,95.70
2023-03-06T04:00:16.971Z,95.70
2023-03-06T04:02:44.720Z,95.70
2023-03-06T04:05:13.100Z,95.70
2023-03-06T04:07:40.759Z,95.70
2023-03-06T04:10:09.379Z,95.70
2023-03-06T04:12:36.856Z,95.70
2023-03-06T04:15:05.729Z,95.70
2023-03-06T04:17:34.895Z,95.70
2023-03-06T04:20:02.648Z,95.70
2023-03-06T04:22:29.556Z,95.70
2023-03-06T04:24:56.415Z,95.70
2023-03-06T04:27:23.256Z,95.70
2023-03-06T04:29:50.183Z,95.70
2023-03-06T04:32:17.571Z,95.70
2023-03-06T04:34:45.507Z,95.70
2023-03-06T04:37:23.851Z,95.70
2023-03-06T04:39:50.977Z,95.70
2023-03-06T04:42:18.599Z,95.70
2023-03-06T04:44:45.631Z,95.70
2023-03-06T04:47:13.162Z,95.70
2023-03-06T04:49:40.038Z,95.70
2023-03-06T04:52:07.151Z,95.70
2023-03-06T04:54:33.993Z,95.70
2023-03-06T04:57:00.842Z,95.70
2023-03-06T04:59:27.732Z,95.70
2023-03-06T05:01:54.842Z,95.70
2023-03-06T05:04:21.699Z,95.70
2023-03-06T05:06:48.606Z,95.70
2023-03-06T05:09:15.444Z,95.70
2023-03-06T05:11:42.240Z,95.70
2023-03-06T05:14:09.125Z,95.70
2023-03-06T05:16:36.046Z,95.70
2023-03-06T05:19:03.384Z,95.70
2023-03-06T05:21:30.547Z,95.70
2023-03-06T05:23:57.349Z,95.70
2023-03-06T05:26:24.645Z,95.70
2023-03-06T05:28:51.508Z,95.70
2023-03-06T05:31:18.431Z,95.70
2023-03-06T05:33:45.275Z,95.70
2023-03-06T05:36:12.215Z,95.70
2023-03-06T05:38:39.028Z,95.70
2023-03-06T05:41:05.930Z,95.70
2023-03-06T05:43:33.028Z,95.70
2023-03-06T05:46:02.163Z,95.70
2023-03-06T05:48:29.071Z,95.70
2023-03-06T05:50:59.235Z,95.70
2023-03-06T05:53:26.881Z,95.70
2023-03-06T05:56:05.283Z,95.70
2023-03-06T05:58:33.928Z,95.70
2023-03-06T06:01:01.121Z,95.70
2023-03-06T06:03:28.009Z,95.70
2023-03-06T06:05:57.890Z,95.70
2023-03-06T06:08:24.783Z,95.70
2023-03-06T06:10:53.404Z,95.70
2023-03-06T06:13:20.354Z,95.70
2023-03-06T06:15:47.197Z,95.70
2023-03-06T08:07:13.630Z,95.70
2023-03-06T08:09:40.452Z,95.70
2023-03-06T08:12:07.551Z,95.70
2023-03-06T08:14:35.220Z,95.70
2023-03-06T08:17:02.140Z,95.70
2023-03-06T08:19:28.904Z,95.70
2023-03-06T08:21:56.330Z,95.70
2023-03-06T08:24:23.114Z,95.70
2023-03-06T08:26:49.978Z,95.70
2023-03-06T08:29:16.835Z,95.70
2023-03-06T08:31:46.129Z,95.70
2023-03-06T08:34:15.857Z,95.70
2023-03-06T08:36:42.824Z,95.70
2023-03-06T08:39:10.169Z,95.70
2023-03-06T08:41:37.917Z,95.70
2023-03-06T08:44:05.014Z,95.70
2023-03-06T08:46:32.985Z,95.70
2023-03-06T08:48:59.833Z,95.70
2023-03-06T08:51:27.943Z,95.70
2023-03-06T08:53:55.336Z,95.70
2023-03-06T08:56:25.174Z,95.70
2023-03-06T08:58:53.529Z,95.70
2023-03-06T09:01:25.794Z,95.70
2023-03-06T09:03:57.474Z,95.70
2023-03-06T09:06:27.340Z,95.40
2023-03-06T09:08:54.514Z,94.50
2023-03-06T09:11:22.911Z,94.20
2023-03-06T09:13:49.945Z,94.00
2023-03-06T09:16:16.854Z,93.00
2023-03-06T09:18:50.906Z,92.80
2023-03-06T09:21:17.676Z,92.80
2023-03-06T09:23:45.283Z,92.10
2023-03-06T09:26:12.641Z,91.80
2023-03-06T09:28:40.414Z,91.00
2023-03-06T09:31:12.332Z,90.90
2023-03-06T09:33:39.633Z,90.50
2023-03-06T09:36:07.901Z,90.70
2023-03-06T09:38:34.886Z,89.90
2023-03-06T09:41:24.657Z,89.80
2023-03-06T09:43:54.436Z,88.30
2023-03-06T09:46:49.131Z,88.40
2023-03-06T09:49:49.485Z,87.40
2023-03-06T09:52:31.411Z,87.90
2023-03-06T09:55:19.033Z,88.60
2023-03-06T09:57:58.653Z,87.90
2023-03-06T10:00:50.956Z,86.40
2023-03-06T10:03:48.509Z,86.40
2023-03-06T10:06:26.452Z,85.90
2023-03-06T10:09:16.586Z,84.80
2023-03-06T10:11:52.381Z,83.40
2023-03-06T10:14:40.274Z,80.60
2023-03-06T10:17:16.310Z,80.10
2023-03-06T10:19:43.401Z,79.80
2023-03-06T10:22:35.041Z,79.80
2023-03-06T10:25:28.115Z,79.00
2023-03-06T10:28:17.540Z,78.30
2023-03-06T10:31:08.018Z,77.80
2023-03-06T10:33:51.719Z,76.70
2023-03-06T10:36:19.862Z,77.70
2023-03-06T10:38:48.603Z,78.00
2023-03-06T10:41:23.112Z,77.60
2023-03-06T10:44:05.293Z,78.10
2023-03-06T10:46:46.030Z,77.00
2023-03-06T10:49:27.127Z,76.60
2023-03-06T10:52:06.744Z,75.50
2023-03-06T10:54:39.155Z,74.90
2023-03-06T10:57:29.442Z,74.50
2023-03-06T10:59:58.707Z,74.60
2023-03-06T11:02:31.044Z,74.00
2023-03-06T11:05:00.408Z,73.70
2023-03-06T11:07:29.579Z,73.30
2023-03-06T11:10:07.910Z,74.80
2023-03-06T11:12:39.710Z,74.40
2023-03-06T11:15:06.476Z,74.00
2023-03-06T11:17:35.983Z,72.70
2023-03-06T11:20:15.057Z,72.80
2023-03-06T11:22:49.045Z,72.90
2023-03-06T11:25:18.026Z,72.10
2023-03-06T11:27:47.043Z,70.80
2023-03-06T11:30:22.322Z,70.10
2023-03-06T11:32:57.816Z,67.60
2023-03-06T11:36:05.429Z,67.70
2023-03-06T11:38:49.704Z,68.80
2023-03-06T11:41:30.868Z,67.90
2023-03-06T11:44:15.317Z,66.80
2023-03-06T11:46:48.689Z,66.90
2023-03-06T11:49:33.361Z,66.30
2023-03-06T11:52:05.522Z,65.10
2023-03-06T11:54:33.750Z,64.20
2023-03-06T11:57:13.250Z,64.60
2023-03-06T12:00:05.092Z,63.90
2023-03-06T12:02:54.981Z,64.50
2023-03-06T12:05:51.967Z,64.50
2023-03-06T12:08:30.443Z,63.30
2023-03-06T12:11:09.696Z,62.70
2023-03-06T12:13:50.114Z,62.90
2023-03-06T12:16:42.579Z,63.20
2023-03-06T12:19:31.749Z,63.10
2023-03-06T12:22:16.785Z,62.80
2023-03-06T12:25:05.116Z,63.10
2023-03-06T12:27:38.190Z,63.10
2023-03-06T12:30:29.678Z,63.90
2023-03-06T12:33:26.410Z,64.60
2023-03-06T12:36:31.115Z,64.70
2023-03-06T12:39:16.582Z,64.50
2023-03-06T12:42:04.862Z,64.50
2023-03-06T12:44:56.085Z,65.30
2023-03-06T12:47:25.642Z,65.30
2023-03-06T12:49:59.259Z,64.20
2023-03-06T12:52:30.689Z,65.30
2023-03-06T12:55:04.356Z,65.10
2023-03-06T12:57:31.273Z,66.30
2023-03-06T12:59:58.165Z,67.20
2023-03-06T13:02:43.003Z,66.80
2023-03-06T13:05:30.536Z,67.00
2023-03-06T13:07:57.419Z,66.70
2023-03-06T13:10:35.886Z,66.40
2023-03-06T13:13:41.485Z,66.80
2023-03-06T13:16:34.003Z,68.30
2023-03-06T13:19:00.962Z,68.20
2023-03-06T13:21:58.994Z,68.50
2023-03-06T13:24:37.570Z,69.30
2023-03-06T13:27:05.959Z,68.50
2023-03-06T13:29:35.827Z,67.70
2023-03-06T13:32:02.741Z,69.00
2023-03-06T13:34:43.519Z,69.70
2023-03-06T13:37:28.179Z,70.60
2023-03-06T13:39:54.984Z,71.30
2023-03-06T13:42:39.697Z,71.90
2023-03-06T13:45:08.008Z,72.30
2023-03-06T13:48:33.661Z,71.60
2023-03-06T13:50:46.271Z,70.30
2023-03-06T13:53:21.482Z,68.90
2023-03-06T13:56:04.344Z,68.90
2023-03-06T13:58:41.493Z,68.70
2023-03-06T14:01:23.050Z,68.70
2023-03-06T14:04:14.756Z,68.60
2023-03-06T14:06:51.976Z,69.10
2023-03-06T14:09:26.904Z,69.10
2023-03-06T14:12:07.859Z,69.00
2023-03-06T14:14:41.755Z,68.70
2023-03-06T14:17:18.111Z,68.80
2023-03-06T14:19:44.969Z,68.70
2023-03-06T14:22:16.602Z,68.90
2023-03-06T14:24:51.720Z,69.00
2023-03-06T14:27:19.278Z,69.50
2023-03-06T14:29:48.701Z,69.70
2023-03-06T14:32:21.634Z,69.70
2023-03-06T14:34:48.497Z,70.10
2023-03-06T14:37:21.536Z,69.90
2023-03-06T14:39:49.149Z,69.60
2023-03-06T14:42:27.567Z,69.70
2023-03-06T14:45:02.471Z,70.50
2023-03-06T14:47:36.692Z,70.60
2023-03-06T14:50:23.483Z,70.50
2023-03-06T14:53:04.796Z,71.30
2023-03-06T14:55:34.973Z,71.10
2023-03-06T14:58:14.601Z,70.70
2023-03-06T15:00:44.264Z,71.70
2023-03-06T15:03:21.003Z,72.30
2023-03-06T15:05:49.563Z,72.80
2023-03-06T15:08:21.082Z,73.10
2023-03-06T15:11:00.371Z,73.20
2023-03-06T15:13:29.424Z,73.20
2023-03-06T15:16:01.753Z,72.80
2023-03-06T15:18:35.272Z,72.40
2023-03-06T15:21:32.357Z,72.10
2023-03-06T15:23:59.717Z,72.00
2023-03-06T15:26:33.340Z,72.10
2023-03-06T15:29:10.324Z,72.60
2023-03-06T15:31:46.890Z,73.30
2023-03-06T15:34:23.715Z,74.10
2023-03-06T15:36:54.312Z,74.30
2023-03-06T15:39:38.919Z,73.80
2023-03-06T15:42:20.816Z,74.70
2023-03-06T15:44:55.779Z,75.30
2023-03-06T15:47:23.006Z,76.10
2023-03-06T15:49:52.593Z,76.80
2023-03-06T15:52:20.987Z,76.80
2023-03-06T15:54:48.619Z,76.80
2023-03-06T15:57:26.879Z,77.20
2023-03-06T15:59:54.278Z,77.30
2023-03-06T16:02:22.487Z,77.50
2023-03-06T16:04:49.942Z,77.90
2023-03-06T16:07:17.160Z,78.00
2023-03-06T16:09:44.354Z,78.60
2023-03-06T16:12:18.094Z,78.60
2023-03-06T16:14:47.364Z,78.70
2023-03-06T16:17:17.445Z,78.80
2023-03-06T16:19:44.437Z,79.00
2023-03-06T16:22:11.512Z,79.20
2023-03-06T16:24:38.497Z,79.70
2023-03-06T16:27:05.458Z,80.00
2023-03-06T16:29:32.726Z,80.40
2023-03-06T16:32:01.761Z,80.80
2023-03-06T16:34:28.842Z,81.00
2023-03-06T16:36:55.961Z,81.20
2023-03-06T16:39:23.925Z,81.80
2023-03-06T16:41:50.868Z,81.90
2023-03-06T16:44:17.816Z,82.50
2023-03-06T16:46:47.061Z,82.90
2023-03-06T16:49:22.604Z,83.10
2023-03-06T16:51:50.082Z,83.10
2023-03-06T16:54:16.996Z,83.50
2023-03-06T16:56:44.329Z,83.60
2023-03-06T16:59:11.841Z,83.80
2023-03-06T17:01:40.602Z,83.80
2023-03-06T17:04:07.602Z,83.60
2023-03-06T17:06:34.537Z,83.70
2023-03-06T17:11:31.060Z,83.70
2023-03-06T17:13:57.899Z,83.80
2023-03-06T17:16:24.661Z,83.90
2023-03-06T17:18:51.653Z,84.10
2023-03-06T17:21:18.443Z,84.40
2023-03-06T17:23:45.766Z,84.60
2023-03-06T17:26:20.461Z,84.70
2023-03-06T17:28:47.629Z,84.90
2023-03-06T17:31:23.036Z,85.00
2023-03-06T17:33:51.411Z,85.20
2023-03-06T17:36:19.268Z,85.30
2023-03-06T17:38:46.208Z,85.60
2023-03-06T17:41:13.191Z,86.00
2023-03-06T17:43:41.011Z,86.10
2023-03-06T17:46:10.112Z,86.20
2023-03-06T17:48:37.031Z,86.40
2023-03-06T17:51:04.623Z,86.50
2023-03-06T17:53:31.663Z,86.80
2023-03-06T17:55:58.557Z,86.80
2023-03-06T17:58:26.212Z,86.90
2023-03-06T18:00:53.156Z,87.10
2023-03-06T18:03:19.994Z,87.30
2023-03-06T18:05:46.752Z,87.60
2023-03-06T18:08:13.613Z,87.80
2023-03-06T18:10:41.339Z,88.20
2023-03-06T18:13:08.554Z,88.30
2023-03-06T18:15:39.479Z,88.40
2023-03-06T18:18:06.775Z,88.50
2023-03-06T18:20:33.926Z,88.70
2023-03-06T18:23:03.843Z,88.70
2023-03-06T18:25:32.345Z,88.80
2023-03-06T18:27:59.239Z,89.00
2023-03-06T18:30:26.024Z,89.10
2023-03-06T18:32:53.426Z,89.20
2023-03-06T18:35:20.729Z,89.40
2023-03-06T18:37:47.484Z,89.70
2023-03-06T18:40:14.517Z,89.80
2023-03-06T18:42:43.188Z,89.80
2023-03-06T18:45:11.437Z,90.00
2023-03-06T18:47:39.468Z,90.00
2023-03-06T18:50:06.760Z,90.10
2023-03-06T18:52:34.856Z,90.30
2023-03-06T18:55:01.746Z,90.50
2023-03-06T18:57:30.336Z,90.70
2023-03-06T18:59:57.290Z,90.70
2023-03-06T19:02:26.986Z,90.90
2023-03-06T19:04:54.526Z,90.90
2023-03-06T19:07:21.254Z,91.10
2023-03-06T19:09:48.991Z,91.20
2023-03-06T19:12:17.458Z,91.60
2023-03-06T19:14:44.496Z,91.90
2023-03-06T19:17:11.330Z,92.00
2023-03-06T19:19:38.351Z,92.20
2023-03-06T19:22:05.101Z,92.20
2023-03-06T19:24:31.938Z,92.50
2023-03-06T19:26:58.663Z,92.60
2023-03-06T19:29:25.742Z,92.70
2023-03-06T19:31:52.563Z,93.00
2023-03-06T19:34:19.354Z,93.30
2023-03-06T19:36:46.197Z,93.40
2023-03-06T19:39:13.050Z,93.80
2023-03-06T19:41:40.058Z,93.90
2023-03-06T19:44:06.854Z,94.20
2023-03-06T19:46:34.535Z,94.30
2023-03-06T19:49:03.183Z,94.50
2023-03-06T19:51:29.932Z,94.50
2023-03-06T19:53:57.567Z,94.60
2023-03-06T19:56:26.756Z,94.60
2023-03-06T19:58:53.947Z,94.50
2023-03-06T20:01:22.866Z,94.60
2023-03-06T20:03:50.676Z,94.80
2023-03-06T20:06:18.966Z,94.80
2023-03-06T20:08:47.162Z,94.90
2023-03-06T20:11:26.020Z,95.20
2023-03-06T20:13:53.628Z,95.50
2023-03-06T20:16:20.634Z,95.70
2023-03-06T20:18:47.617Z,95.70
2023-03-06T20:21:15.221Z,95.70
2023-03-06T20:23:42.534Z,95.70
2023-03-06T20:26:12.083Z,95.70
2023-03-06T20:28:39.961Z,95.70
2023-03-06T20:31:13.361Z,95.70
2023-03-06T20:33:40.164Z,95.70
2023-03-06T20:36:17.389Z,95.70
2023-03-06T20:38:44.745Z,95.70
2023-03-06T20:41:16.436Z,95.70
2023-03-06T20:43:43.539Z,95.70
2023-03-06T20:46:11.200Z,95.70
2023-03-06T20:48:38.859Z,95.70
2023-03-06T20:51:07.993Z,95.70
2023-03-06T20:53:37.557Z,95.70
2023-03-06T20:56:05.002Z,95.70
2023-03-06T20:58:32.542Z,95.70
2023-03-06T21:01:01.389Z,95.70
2023-03-06T21:03:29.648Z,95.70
2023-03-06T21:05:56.508Z,95.70
2023-03-06T21:08:23.551Z,95.60
2023-03-06T21:10:50.844Z,95.60
2023-03-06T21:13:17.598Z,95.60
2023-03-06T21:15:45.617Z,95.50
2023-03-06T21:18:13.070Z,95.50
2023-03-06T21:20:40.578Z,95.70
2023-03-06T21:23:07.433Z,95.50
2023-03-06T21:25:34.584Z,95.50
2023-03-06T21:28:01.357Z,95.50
2023-03-06T21:30:28.618Z,95.40
2023-03-06T21:32:55.676Z,95.30
2023-03-06T21:35:22.505Z,95.40
2023-03-06T21:37:49.217Z,95.20
2023-03-06T21:40:16.015Z,95.10
2023-03-06T21:42:42.768Z,95.10
2023-03-06T21:45:10.081Z,95.10
2023-03-06T21:47:38.364Z,95.00
2023-03-06T21:50:06.262Z,94.80
2023-03-06T21:52:33.001Z,94.80
2023-03-06T21:54:59.781Z,94.60
2023-03-06T21:57:26.564Z,94.40
2023-03-06T21:59:53.323Z,94.40
2023-03-06T22:02:21.159Z,94.30
2023-03-06T22:04:52.614Z,94.20
2023-03-06T22:07:20.204Z,94.00
2023-03-06T22:09:47.344Z,93.90
2023-03-06T22:12:14.442Z,94.00
2023-03-06T22:14:43.563Z,93.80
2023-03-06T22:17:10.476Z,93.60
2023-03-06T22:19:37.240Z,93.40
2023-03-06T22:22:04.302Z,93.30
2023-03-06T22:24:33.838Z,93.10
2023-03-06T22:27:00.634Z,92.90
2023-03-06T22:29:27.391Z,92.80
2023-03-06T22:31:54.158Z,92.60
2023-03-06T22:34:20.977Z,92.50
2023-03-06T22:36:48.174Z,92.40
2023-03-06T22:39:15.000Z,92.30
2023-03-06T22:41:41.725Z,92.30
2023-03-06T22:44:14.283Z,92.20
2023-03-06T22:46:41.612Z,92.20
2023-03-06T22:49:10.784Z,92.20
2023-03-06T22:51:37.976Z,92.20
2023-03-06T22:54:05.801Z,92.10
2023-03-06T22:56:32.954Z,92.10
2023-03-06T22:59:00.039Z,92.00
2023-03-06T23:01:29.309Z,92.10
2023-03-06T23:03:58.475Z,92.20
2023-03-06T23:06:36.754Z,92.20
2023-03-06T23:09:16.573Z,92.20
2023-03-06T23:11:43.401Z,92.20
2023-03-06T23:14:13.962Z,92.40
2023-03-06T23:16:40.768Z,92.50
2023-03-06T23:19:07.580Z,92.60
2023-03-06T23:24:04.358Z,92.90
2023-03-06T23:26:31.856Z,93.00
2023-03-06T23:28:58.675Z,93.60
2023-03-06T23:31:30.277Z,94.10
2023-03-06T23:33:58.443Z,94.50
2023-03-06T23:36:25.337Z,95.40
2023-03-06T23:38:52.160Z,95.70
2023-03-06T23:41:20.290Z,95.70
2023-03-06T23:43:47.885Z,95.70
2023-03-06T23:46:15.172Z,95.70
2023-03-06T23:48:42.527Z,95.70
2023-03-06T23:51:15.501Z,95.70
2023-03-06T23:53:43.225Z,95.70
2023-03-06T23:56:10.576Z,95.70
2023-03-06T23:58:37.641Z,95.70
